Isle of Lewis, United Kingdom
Current Conditions -  °F | °C
As of 2:50 AM on Saturday 25 Oct 2014 (Local Time) from EGPO Reporting Station
Rain Showers Rain Showers  
Wind Chill: 39°   Ceiling: Unl
Heat Index: 46°   Visibility: 4mi
Dew Point: 41°   Wind: 17mph
Humidity: 81%   Direction: 240°WSW
Pressure: 29.47"   Gusts: NA
Location:  58.22°N, 6.35°W
Report Text: EGPO 250150Z AUTO 24015KT 7000 -SHRA FEW022/// SCT027/// 08/05 Q0998
Loading
Personal Weather Stations






























Interactive Weather Map
Tropical Storm Tracking
New forecast layout! Learn more

10-Day Weather Forecast

Advertisements
Track Severe Weather on mobile